Time;durP1;ratioP1;P1;durP2;ratioP2;P2;SDS_P1;SDS_P2;PMS_P1;PMS_P2;Temp;Humidity;BMP_temperature;BMP_pressure;BME280_temperature;BME280_humidity;BME280_pressure;Samples;Min_cycle;Max_cycle;Signal;HPM_P1;HPM_P2
2021/04/17 00:02:08;;;;;;;22.50;10.65;;;1.80;91.20;;;;;;5028001;28;20033;-66
2021/04/17 00:04:37;;;;;;;17.60;9.82;;;1.80;90.90;;;;;;5027439;28;20020;-66
2021/04/17 00:07:02;;;;;;;19.13;10.20;;;1.80;91.00;;;;;;5026089;28;20056;-67
2021/04/17 00:09:28;;;;;;;;;;;1.80;91.00;;;;;;5027589;28;20052;-67
2021/04/17 00:11:57;;;;;;;26.27;12.55;;;1.80;91.10;;;;;;5027505;28;19909;-66
2021/04/17 00:14:26;;;;;;;25.33;13.77;;;1.80;91.10;;;;;;5027584;28;20037;-66
2021/04/17 00:16:52;;;;;;;17.20;9.38;;;1.80;91.10;;;;;;5027476;28;20108;-66
2021/04/17 00:19:18;;;;;;;18.50;10.50;;;1.80;91.20;;;;;;5027034;28;20026;-67
2021/04/17 00:21:44;;;;;;;;;;;1.90;91.10;;;;;;5027639;28;20098;-67
2021/04/17 00:24:09;;;;;;;9.30;4.97;;;1.90;91.20;;;;;;5026793;28;20692;-67
2021/04/17 00:26:35;;;;;;;;;;;1.90;91.20;;;;;;5027393;28;20099;-66
2021/04/17 00:29:05;;;;;;;12.60;5.85;;;1.90;91.10;;;;;;5027327;28;19935;-67
2021/04/17 00:31:32;;;;;;;10.07;5.72;;;1.90;91.10;;;;;;5025958;28;20033;-65
2021/04/17 00:33:58;;;;;;;11.55;6.55;;;1.80;91.30;;;;;;5026709;28;20026;-66
2021/04/17 00:36:23;;;;;;;;;;;1.80;91.40;;;;;;5027879;28;20036;-66
2021/04/17 00:38:49;;;;;;;15.68;8.43;;;1.70;91.30;;;;;;5026422;28;19909;-66
2021/04/17 00:41:15;;;;;;;;;;;1.70;91.20;;;;;;5027491;28;20037;-65
2021/04/17 00:43:40;;;;;;;11.48;7.72;;;1.70;91.30;;;;;;5026998;28;19909;-65
2021/04/17 00:46:06;;;;;;;;;;;1.70;91.40;;;;;;5027317;28;20421;-66
2021/04/17 00:48:32;;;;;;;20.65;8.07;;;1.70;91.40;;;;;;5026720;28;20301;-66
2021/04/17 00:50:58;;;;;;;13.98;6.88;;;1.70;91.30;;;;;;5026576;28;20510;-65
2021/04/17 00:53:24;;;;;;;;;;;1.60;91.30;;;;;;5027125;28;20040;-66
2021/04/17 00:55:49;;;;;;;16.52;6.03;;;1.60;91.40;;;;;;5026515;28;19909;-66
2021/04/17 00:58:15;;;;;;;;;;;1.60;91.40;;;;;;5027165;28;20477;-66
2021/04/17 01:00:41;;;;;;;8.82;5.38;;;1.60;91.40;;;;;;5026746;28;19995;-65
2021/04/17 01:03:33;;;;;;;;;;;1.60;91.50;;;;;;5026780;28;20033;-65
2021/04/17 01:06:10;;;;;;;14.77;5.78;;;1.60;91.60;;;;;;5025011;28;20006;-66
2021/04/17 01:09:03;;;;;;;14.20;6.35;;;1.70;91.60;;;;;;5025850;28;20450;-67
2021/04/17 01:11:52;;;;;;;9.70;5.53;;;1.70;91.60;;;;;;5026572;28;20120;-66
2021/04/17 01:14:19;;;;;;;10.77;6.78;;;1.70;91.50;;;;;;5024846;28;20030;-66
2021/04/17 01:16:46;;;;;;;11.13;6.75;;;1.60;91.50;;;;;;5026227;28;20731;-65
2021/04/17 01:19:17;;;;;;;12.00;6.85;;;1.60;91.50;;;;;;5026412;28;20072;-65
2021/04/17 01:21:44;;;;;;;13.13;7.80;;;1.60;91.50;;;;;;5025538;28;20033;-66
2021/04/17 01:24:16;;;;;;;13.90;8.27;;;1.60;91.60;;;;;;5026464;28;20029;-66
2021/04/17 01:26:42;;;;;;;19.40;11.65;;;1.50;91.50;;;;;;5026514;28;20274;-67
2021/04/17 01:29:08;;;;;;;20.38;12.27;;;1.50;91.50;;;;;;5025832;28;20033;-66
2021/04/17 01:31:36;;;;;;;17.58;10.40;;;1.50;91.40;;;;;;5026577;28;20033;-66
2021/04/17 01:34:04;;;;;;;23.80;12.10;;;1.50;91.40;;;;;;5026295;28;20113;-66
2021/04/17 01:36:32;;;;;;;18.17;9.35;;;1.40;91.20;;;;;;5024856;28;20028;-66
2021/04/17 01:39:01;;;;;;;16.35;7.45;;;1.40;91.50;;;;;;5045904;28;20040;-66
2021/04/17 01:41:31;;;;;;;12.65;7.60;;;1.50;91.90;;;;;;5046219;28;20025;-67
2021/04/17 01:44:04;;;;;;;12.98;7.82;;;1.50;91.90;;;;;;5045876;28;20025;-67
2021/04/17 01:46:33;;;;;;;13.07;7.20;;;1.50;91.80;;;;;;5045696;28;20120;-66
2021/04/17 01:49:04;;;;;;;18.88;7.65;;;1.40;91.70;;;;;;5045941;28;20025;-67
2021/04/17 01:51:32;;;;;;;19.38;8.38;;;1.50;91.70;;;;;;5044099;28;20036;-66
2021/04/17 01:54:02;;;;;;;14.98;7.80;;;1.50;91.80;;;;;;5045484;28;20032;-67
2021/04/17 01:56:30;;;;;;;16.05;9.85;;;1.40;91.70;;;;;;5044869;28;20075;-66
2021/04/17 01:58:58;;;;;;;21.83;13.18;;;1.40;91.70;;;;;;5044333;28;20037;-67
2021/04/17 02:01:24;;;;;;;19.85;8.52;;;1.30;92.00;;;;;;5046008;28;20033;-67
2021/04/17 02:03:50;;;;;;;17.45;10.50;;;1.30;91.90;;;;;;5049762;28;20493;-67
2021/04/17 02:06:16;;;;;;;;;;;1.40;91.90;;;;;;5050258;28;20503;-66
2021/04/17 02:08:42;;;;;;;13.00;8.13;;;1.30;91.80;;;;;;5049889;28;20297;-66
2021/04/17 02:11:08;;;;;;;13.20;7.30;;;1.40;91.90;;;;;;5049318;28;20036;-66
2021/04/17 02:13:35;;;;;;;;;;;1.40;92.00;;;;;;5050386;28;20043;-67
2021/04/17 02:16:12;;;;;;;15.30;7.07;;;1.40;92.10;;;;;;5049316;28;20357;-67
2021/04/17 02:18:46;;;;;;;14.80;7.07;;;1.40;92.10;;;;;;5049366;28;20112;-66
2021/04/17 02:21:21;;;;;;;19.75;7.75;;;1.40;92.30;;;;;;5048909;28;20029;-67
2021/04/17 02:23:47;;;;;;;18.65;7.70;;;1.50;92.30;;;;;;5049653;28;20021;-66
2021/04/17 02:26:13;;;;;;;16.42;7.88;;;1.60;92.20;;;;;;5049632;28;20513;-65
2021/04/17 02:28:39;;;;;;;13.98;7.70;;;1.70;92.10;;;;;;5049049;28;20026;-67
2021/04/17 02:31:05;;;;;;;21.15;8.38;;;1.70;92.10;;;;;;5048229;28;20499;-67
2021/04/17 02:33:30;;;;;;;;;;;1.80;92.10;;;;;;5050076;28;20036;-66
2021/04/17 02:35:56;;;;;;;14.25;8.38;;;1.80;92.00;;;;;;5047223;28;19954;-66
2021/04/17 02:38:22;;;;;;;;;;;1.80;92.00;;;;;;5049891;28;20149;-67
2021/04/17 02:40:48;;;;;;;11.32;6.50;;;1.80;91.80;;;;;;5048918;28;20305;-66
2021/04/17 02:43:13;;;;;;;;;;;1.80;91.70;;;;;;5049438;28;20468;-67
2021/04/17 02:45:39;;;;;;;19.13;8.20;;;1.80;91.50;;;;;;5049112;28;20070;-66
2021/04/17 02:48:05;;;;;;;;;;;1.70;91.50;;;;;;5048475;28;20552;-67
2021/04/17 02:50:30;;;;;;;14.70;7.57;;;1.70;91.50;;;;;;5049056;28;20387;-66
2021/04/17 02:52:56;;;;;;;;;;;1.60;91.60;;;;;;5049223;28;20021;-67
2021/04/17 02:55:22;;;;;;;13.80;7.20;;;1.60;91.70;;;;;;5048983;28;20594;-67
2021/04/17 02:57:47;;;;;;;;;;;1.60;91.80;;;;;;5049127;28;20079;-66
2021/04/17 03:00:17;;;;;;;17.23;8.70;;;1.60;91.90;;;;;;5047809;28;19915;-67
2021/04/17 03:02:43;;;;;;;20.45;8.80;;;1.60;92.00;;;;;;5048873;28;20025;-66
2021/04/17 03:05:10;;;;;;;18.48;9.75;;;1.70;92.30;;;;;;5048717;28;20021;-65
2021/04/17 03:07:36;;;;;;;16.38;8.68;;;1.80;92.20;;;;;;5048590;28;20102;-67
2021/04/17 03:10:06;;;;;;;;;;;1.90;92.00;;;;;;5048696;28;20087;-66
2021/04/17 03:12:31;;;;;;;18.90;9.75;;;2.00;91.90;;;;;;5048279;28;20558;-67
2021/04/17 03:14:57;;;;;;;;;;;2.00;91.80;;;;;;5048889;28;20040;-66
2021/04/17 03:17:23;;;;;;;15.77;8.82;;;2.00;91.60;;;;;;5047224;28;19909;-66
2021/04/17 03:19:48;;;;;;;;;;;1.90;91.60;;;;;;5048850;28;20021;-66
2021/04/17 03:22:14;;;;;;;21.65;10.10;;;1.80;91.70;;;;;;5047806;28;19908;-66
2021/04/17 03:24:39;;;;;;;;;;;1.80;91.70;;;;;;5048587;28;20407;-67
2021/04/17 03:27:05;;;;;;;16.65;9.48;;;1.80;91.60;;;;;;5048455;28;19919;-66
2021/04/17 03:29:32;;;;;;;25.50;12.23;;;1.70;91.70;;;;;;5047026;28;20024;-66
2021/04/17 03:31:58;;;;;;;25.27;13.00;;;1.70;91.60;;;;;;5048006;28;20037;-65
2021/04/17 03:34:23;;;;;;;;;;;1.60;91.50;;;;;;5048855;28;20511;-66
2021/04/17 03:36:49;;;;;;;19.00;10.45;;;1.50;91.60;;;;;;5047831;28;19905;-66
2021/04/17 03:39:15;;;;;;;17.77;9.73;;;1.50;91.60;;;;;;5048299;28;20037;-66
2021/04/17 03:41:41;;;;;;;;;;;1.50;91.60;;;;;;5048112;28;20382;-66
2021/04/17 03:44:06;;;;;;;22.20;10.40;;;1.40;91.70;;;;;;5047944;28;20274;-66
2021/04/17 03:46:32;;;;;;;;;;;1.40;91.80;;;;;;5048107;28;20680;-67
2021/04/17 03:48:58;;;;;;;21.98;12.20;;;1.40;91.70;;;;;;5046225;28;19909;-67
2021/04/17 03:51:24;;;;;;;;;;;1.40;91.60;;;;;;5047981;28;20033;-67
2021/04/17 03:53:49;;;;;;;33.50;16.88;;;1.30;91.60;;;;;;5047585;28;19908;-65
2021/04/17 03:56:15;;;;;;;;;;;1.30;91.50;;;;;;5047830;28;20735;-66
2021/04/17 03:58:41;;;;;;;31.52;17.67;;;1.20;91.40;;;;;;5047343;28;19944;-66
2021/04/17 04:01:07;;;;;;;;;;;1.20;91.50;;;;;;5046747;28;20091;-67
2021/04/17 04:03:33;;;;;;;43.75;25.52;;;1.20;91.70;;;;;;5047741;28;20396;-67
2021/04/17 04:05:59;;;;;;;34.35;17.83;;;1.30;91.80;;;;;;5045563;28;20033;-66
2021/04/17 04:08:25;;;;;;;;;;;1.30;91.80;;;;;;5046681;28;20118;-66
2021/04/17 04:10:50;;;;;;;31.80;15.45;;;1.40;91.80;;;;;;5046897;28;19917;-67
2021/04/17 04:13:16;;;;;;;;;;;1.40;91.80;;;;;;5047572;28;20048;-66
2021/04/17 04:15:42;;;;;;;39.95;18.17;;;1.50;91.60;;;;;;5046886;28;20350;-66
2021/04/17 04:18:07;;;;;;;;;;;1.50;91.60;;;;;;5047510;28;20112;-66
2021/04/17 04:20:33;;;;;;;38.00;17.88;;;1.50;91.50;;;;;;5046753;28;19915;-66
2021/04/17 04:23:00;;;;;;;;;;;1.60;91.50;;;;;;5047383;28;20072;-66
2021/04/17 04:28:09;;;;;;;48.72;22.90;;;1.70;91.50;;;;;;5047050;28;20450;-66
2021/04/17 04:30:35;;;;;;;;;;;1.70;91.30;;;;;;5046196;28;20664;-66
2021/04/17 04:33:01;;;;;;;49.50;22.65;;;1.90;91.00;;;;;;5046718;28;19951;-66
2021/04/17 04:35:26;;;;;;;;;;;1.90;91.00;;;;;;5047248;28;20037;-65
2021/04/17 04:37:52;;;;;;;47.83;20.25;;;2.10;90.90;;;;;;5047087;28;20676;-66
2021/04/17 04:40:17;;;;;;;;;;;2.50;90.70;;;;;;5047007;28;20017;-66
2021/04/17 04:42:43;;;;;;;31.60;14.25;;;3.00;89.80;;;;;;5046913;28;19909;-67
2021/04/17 04:45:09;;;;;;;;;;;3.50;88.20;;;;;;5046787;28;20052;-66
2021/04/17 04:47:35;;;;;;;21.52;10.98;;;4.00;85.30;;;;;;5045739;28;19908;-66
2021/04/17 04:50:02;;;;;;;18.00;9.25;;;4.50;83.10;;;;;;5046228;28;20137;-65
2021/04/17 04:52:27;;;;;;;15.30;9.52;;;4.90;80.60;;;;;;5046633;28;20055;-65
2021/04/17 04:54:53;;;;;;;;;;;5.50;78.70;;;;;;5046880;28;20647;-66
2021/04/17 04:57:18;;;;;;;16.02;7.60;;;5.80;76.00;;;;;;5046594;28;20288;-66
2021/04/17 04:59:44;;;;;;;;;;;6.10;75.70;;;;;;5047047;28;20216;-66
2021/04/17 05:02:09;;;;;;;18.13;8.77;;;6.40;73.70;;;;;;5046702;28;19913;-67
2021/04/17 05:04:35;;;;;;;20.00;10.57;;;6.70;73.30;;;;;;5045899;28;20033;-66
2021/04/17 05:07:00;;;;;;;;;;;7.20;71.00;;;;;;5046888;28;20767;-66
2021/04/17 05:09:26;;;;;;;20.08;9.63;;;7.80;68.00;;;;;;5046599;28;19966;-67
2021/04/17 05:11:52;;;;;;;18.08;9.57;;;8.40;66.00;;;;;;5046232;28;20040;-66
2021/04/17 05:14:17;;;;;;;;;;;8.80;64.70;;;;;;5046983;28;20033;-67
2021/04/17 05:16:43;;;;;;;12.52;7.22;;;9.30;61.60;;;;;;5046180;28;19934;-67
2021/04/17 05:19:09;;;;;;;;;;;9.50;61.70;;;;;;5046298;28;20400;-67
2021/04/17 05:21:35;;;;;;;12.50;7.25;;;9.80;59.30;;;;;;5046465;28;19908;-67
2021/04/17 05:24:00;;;;;;;;;;;10.10;59.20;;;;;;5046437;28;20039;-67
2021/04/17 05:26:27;;;;;;;14.65;8.18;;;10.30;57.20;;;;;;5046394;28;19912;-66
2021/04/17 05:28:52;;;;;;;10.70;6.85;;;10.60;58.50;;;;;;5045966;28;20361;-66
2021/04/17 05:31:18;;;;;;;;;;;11.00;57.40;;;;;;5046801;28;20518;-67
2021/04/17 05:33:43;;;;;;;12.77;7.72;;;11.30;55.30;;;;;;5045793;28;19909;-67
2021/04/17 05:36:09;;;;;;;15.35;8.43;;;11.50;55.60;;;;;;5044338;28;20527;-67
2021/04/17 05:38:35;;;;;;;8.88;6.65;;;11.80;55.00;;;;;;5046476;28;20116;-67
2021/04/17 05:41:00;;;;;;;16.35;6.95;;;11.90;53.80;;;;;;5045844;28;20025;-67
2021/04/17 05:43:26;;;;;;;18.15;6.90;;;12.10;53.80;;;;;;5045967;28;20498;-68
2021/04/17 05:45:52;;;;;;;6.82;5.50;;;12.20;53.10;;;;;;5045929;28;20041;-68
2021/04/17 05:48:17;;;;;;;9.70;5.95;;;12.10;52.90;;;;;;5045722;28;20098;-67
2021/04/17 05:50:43;;;;;;;8.98;5.03;;;12.20;52.30;;;;;;5045556;28;20048;-68
2021/04/17 05:53:09;;;;;;;11.02;5.82;;;12.30;52.70;;;;;;5045627;28;20033;-67
2021/04/17 05:55:34;;;;;;;12.85;5.88;;;12.40;52.40;;;;;;5046035;28;20072;-67
2021/04/17 05:58:00;;;;;;;8.07;4.95;;;12.70;51.80;;;;;;5045552;28;20485;-67
2021/04/17 06:00:26;;;;;;;10.02;5.40;;;13.10;51.40;;;;;;5046009;28;20027;-68
2021/04/17 06:02:53;;;;;;;10.40;5.85;;;13.60;49.80;;;;;;5045745;28;20166;-67
2021/04/17 06:05:19;;;;;;;9.35;5.07;;;13.90;49.10;;;;;;5045760;28;20119;-68
2021/04/17 06:07:44;;;;;;;7.07;5.70;;;14.00;49.00;;;;;;5045572;28;20033;-68
2021/04/17 06:10:10;;;;;;;10.60;6.47;;;14.20;47.80;;;;;;5045750;28;20037;-68
2021/04/17 06:12:36;;;;;;;11.70;5.40;;;14.50;47.30;;;;;;5045593;28;20398;-67
2021/04/17 06:15:02;;;;;;;11.98;6.05;;;14.70;46.50;;;;;;5045836;28;20040;-67
2021/04/17 06:17:28;;;;;;;7.53;5.75;;;14.90;45.70;;;;;;5046007;28;20113;-67
2021/04/17 06:19:54;;;;;;;9.95;6.15;;;15.30;45.50;;;;;;5044859;28;20502;-67
2021/04/17 06:22:19;;;;;;;9.15;6.28;;;15.60;44.40;;;;;;5045961;28;20025;-69
2021/04/17 06:24:45;;;;;;;12.38;6.75;;;16.00;44.10;;;;;;5046020;28;20049;-68
2021/04/17 06:27:11;;;;;;;10.73;7.55;;;16.50;42.60;;;;;;5045405;28;20482;-69
2021/04/17 06:29:36;;;;;;;20.75;8.13;;;16.70;42.10;;;;;;5045458;28;20120;-69
2021/04/17 06:32:02;;;;;;;24.73;8.38;;;17.00;41.30;;;;;;5045627;28;20029;-67
2021/04/17 06:34:28;;;;;;;17.55;7.78;;;17.40;39.70;;;;;;5044731;28;20028;-68
2021/04/17 06:36:54;;;;;;;15.45;7.05;;;18.30;36.50;;;;;;5045676;28;20060;-69
2021/04/17 06:39:19;;;;;;;20.80;8.10;;;17.40;37.60;;;;;;5044122;28;20573;-68
2021/04/17 06:41:47;;;;;;;16.13;7.50;;;16.90;38.80;;;;;;5045524;28;20032;-67
2021/04/17 06:44:15;;;;;;;12.98;6.75;;;17.40;37.50;;;;;;5045195;28;20033;-68
2021/04/17 06:46:41;;;;;;;19.15;7.65;;;16.80;38.10;;;;;;5045768;28;20067;-69
2021/04/17 06:49:08;;;;;;;15.25;7.85;;;16.80;38.80;;;;;;5048806;28;20056;-68
2021/04/17 06:51:36;;;;;;;14.60;7.53;;;16.40;39.50;;;;;;5049342;28;20036;-68
2021/04/17 06:54:05;;;;;;;12.48;8.10;;;16.40;41.70;;;;;;5048947;28;20036;-68
2021/04/17 06:56:31;;;;;;;10.98;7.75;;;16.80;40.90;;;;;;5049046;28;20090;-69
2021/04/17 06:58:57;;;;;;;10.57;8.25;;;16.90;40.10;;;;;;5048657;28;20509;-70
2021/04/17 07:01:23;;;;;;;9.50;6.63;;;17.30;39.70;;;;;;5049028;28;20032;-68
2021/04/17 07:03:48;;;;;;;8.90;7.28;;;17.80;38.90;;;;;;5048306;28;20029;-69
2021/04/17 07:06:15;;;;;;;8.65;6.28;;;18.50;36.60;;;;;;5048711;28;20061;-69
2021/04/17 07:08:41;;;;;;;11.05;6.53;;;18.40;35.20;;;;;;5048854;28;20025;-68
2021/04/17 07:11:07;;;;;;;7.57;6.20;;;18.00;35.50;;;;;;5048342;28;20036;-68
2021/04/17 07:13:36;;;;;;;12.25;6.25;;;17.80;36.90;;;;;;5048653;28;20039;-67
2021/04/17 07:16:10;;;;;;;7.45;6.60;;;17.00;38.60;;;;;;5048156;28;20025;-66
2021/04/17 07:18:37;;;;;;;11.80;7.25;;;16.80;38.80;;;;;;5048258;28;20024;-68
2021/04/17 07:21:15;;;;;;;9.23;6.85;;;17.00;38.60;;;;;;5048281;28;20120;-68
2021/04/17 07:23:46;;;;;;;6.45;5.72;;;16.50;38.80;;;;;;5048173;28;20037;-68
2021/04/17 07:26:16;;;;;;;7.43;6.50;;;16.00;40.60;;;;;;5048335;28;20080;-68
2021/04/17 07:28:54;;;;;;;8.98;6.25;;;16.20;39.20;;;;;;5048353;28;20033;-68
2021/04/17 07:31:20;;;;;;;6.88;6.07;;;16.30;39.80;;;;;;5047897;28;20045;-68
2021/04/17 07:33:46;;;;;;;8.95;7.15;;;16.20;40.10;;;;;;5047867;28;20087;-70
2021/04/17 07:36:12;;;;;;;8.98;6.20;;;16.50;40.30;;;;;;5048451;28;20469;-69
2021/04/17 07:38:38;;;;;;;7.43;6.47;;;16.90;38.60;;;;;;5048225;28;20521;-68
2021/04/17 07:41:10;;;;;;;8.95;7.43;;;17.20;38.00;;;;;;5047931;28;20477;-68
2021/04/17 07:43:48;;;;;;;7.38;6.60;;;17.40;37.70;;;;;;5047872;28;20621;-65
2021/04/17 07:46:15;;;;;;;7.05;6.10;;;17.70;37.50;;;;;;5048135;28;20037;-66
2021/04/17 07:48:41;;;;;;;8.50;6.65;;;18.10;36.10;;;;;;5047376;28;20021;-66
2021/04/17 07:51:08;;;;;;;9.48;8.25;;;18.30;35.50;;;;;;5046593;28;20033;-66
2021/04/17 07:53:40;;;;;;;8.10;6.45;;;17.80;36.60;;;;;;5046775;28;20031;-66
2021/04/17 07:56:24;;;;;;;9.52;8.13;;;18.30;35.50;;;;;;5047531;28;20025;-65
2021/04/17 07:58:52;;;;;;;9.77;7.70;;;17.90;34.90;;;;;;5046898;28;20577;-65
2021/04/17 08:01:19;;;;;;;9.15;6.78;;;17.30;37.30;;;;;;5047604;28;20029;-66
2021/04/17 08:03:46;;;;;;;8.57;7.68;;;17.50;35.70;;;;;;5047169;28;20106;-65
2021/04/17 08:06:17;;;;;;;8.60;7.20;;;18.00;35.10;;;;;;5047786;28;20020;-66
2021/04/17 08:08:44;;;;;;;9.23;8.07;;;18.50;35.70;;;;;;5047400;28;20029;-66
2021/04/17 08:11:11;;;;;;;10.35;8.50;;;19.10;35.10;;;;;;5047482;28;20033;-68
2021/04/17 08:13:39;;;;;;;10.60;6.82;;;19.50;33.30;;;;;;5047642;28;20402;-68
2021/04/17 08:16:07;;;;;;;10.57;7.70;;;20.10;32.80;;;;;;5047401;28;20079;-67
2021/04/17 08:18:35;;;;;;;9.05;7.78;;;20.60;31.90;;;;;;5046806;28;20021;-68
2021/04/17 08:21:00;;;;;;;9.55;8.02;;;20.20;32.20;;;;;;5047104;28;20837;-68
2021/04/17 08:23:27;;;;;;;17.33;9.40;;;20.40;32.90;;;;;;5047042;28;20040;-68
2021/04/17 08:25:54;;;;;;;9.32;8.43;;;20.80;32.40;;;;;;5047336;28;20023;-68
2021/04/17 08:28:22;;;;;;;8.85;7.20;;;20.50;30.30;;;;;;5047380;28;20501;-68
2021/04/17 08:30:49;;;;;;;9.70;8.73;;;19.90;31.40;;;;;;5046785;28;20036;-67
2021/04/17 08:33:17;;;;;;;8.27;7.47;;;19.80;33.80;;;;;;5046947;28;20017;-68
2021/04/17 08:35:43;;;;;;;9.25;8.20;;;20.10;32.70;;;;;;5046872;28;20041;-66
2021/04/17 08:38:11;;;;;;;10.23;9.10;;;20.30;32.60;;;;;;5047088;28;20492;-67
2021/04/17 08:40:36;;;;;;;10.35;8.35;;;20.60;31.90;;;;;;5045664;28;20516;-68
2021/04/17 08:43:22;;;;;;;9.63;8.50;;;20.00;32.40;;;;;;5046441;28;20029;-67
2021/04/17 08:46:08;;;;;;;9.00;8.13;;;19.60;32.70;;;;;;5039191;28;20092;-68
2021/04/17 08:48:55;;;;;;;8.68;7.85;;;19.40;32.70;;;;;;5046515;28;20521;-67
2021/04/17 08:51:21;;;;;;;9.35;8.20;;;19.00;33.50;;;;;;5046889;28;20044;-67
2021/04/17 08:54:10;;;;;;;8.63;7.25;;;18.60;34.70;;;;;;5045465;28;20025;-68
2021/04/17 08:56:48;;;;;;;8.13;7.10;;;18.80;34.70;;;;;;5037262;28;20436;-68
2021/04/17 08:59:22;;;;;;;7.90;7.05;;;18.50;34.40;;;;;;5046234;28;20029;-67
2021/04/17 09:01:50;;;;;;;13.13;7.68;;;18.00;35.40;;;;;;5044753;28;20059;-67
2021/04/17 09:04:16;;;;;;;8.90;7.65;;;17.90;35.60;;;;;;5046590;28;20098;-67
2021/04/17 09:06:45;;;;;;;9.60;7.45;;;18.00;35.30;;;;;;5046079;28;20060;-67
2021/04/17 09:09:20;;;;;;;8.27;7.22;;;17.10;36.90;;;;;;5046680;28;20075;-67
2021/04/17 09:11:51;;;;;;;11.15;9.95;;;16.60;37.70;;;;;;5046392;28;20041;-67
2021/04/17 09:14:32;;;;;;;12.43;9.65;;;16.50;39.50;;;;;;5046339;28;20029;-66
2021/04/17 09:17:06;;;;;;;10.32;8.30;;;16.40;38.30;;;;;;5046063;28;20049;-67
2021/04/17 09:19:38;;;;;;;10.65;9.52;;;16.00;40.40;;;;;;5046323;28;20441;-67
2021/04/17 09:22:22;;;;;;;12.90;9.23;;;16.50;41.40;;;;;;5045947;28;20082;-68
2021/04/17 09:24:48;;;;;;;10.30;9.20;;;17.30;39.70;;;;;;5046114;28;20028;-67
2021/04/17 09:27:26;;;;;;;11.63;9.45;;;17.50;39.60;;;;;;5046359;28;20029;-67
2021/04/17 09:30:06;;;;;;;16.67;11.57;;;16.90;39.50;;;;;;5045736;28;20029;-66
2021/04/17 09:32:33;;;;;;;15.57;10.90;;;15.90;40.70;;;;;;5045570;28;20082;-67
2021/04/17 09:35:00;;;;;;;15.20;11.75;;;15.50;41.90;;;;;;5045821;28;20791;-66
2021/04/17 09:37:26;;;;;;;19.05;11.20;;;15.30;42.50;;;;;;5046322;28;20037;-66
2021/04/17 09:39:52;;;;;;;19.40;12.82;;;14.90;44.20;;;;;;5045994;28;20577;-66
2021/04/17 09:42:28;;;;;;;;;;;14.20;46.30;;;;;;5046222;28;20104;-67
2021/04/17 09:44:54;;;;;;;26.17;11.63;;;13.80;47.10;;;;;;5046078;28;19923;-67
2021/04/17 09:47:20;;;;;;;;;;;13.60;48.10;;;;;;5046193;28;20385;-66
2021/04/17 09:49:47;;;;;;;24.10;12.88;;;13.20;48.30;;;;;;5045930;28;19916;-67
2021/04/17 09:52:19;;;;;;;19.77;11.20;;;12.70;50.30;;;;;;5046143;28;20029;-66
2021/04/17 09:54:56;;;;;;;16.52;10.48;;;12.60;50.30;;;;;;5046157;28;20477;-67
2021/04/17 09:57:22;;;;;;;14.75;10.98;;;12.50;50.70;;;;;;5046149;28;20234;-67
2021/04/17 09:59:51;;;;;;;;;;;12.60;51.60;;;;;;5046064;28;20177;-66
2021/04/17 10:02:17;;;;;;;14.90;10.38;;;12.70;50.60;;;;;;5045623;28;20300;-66
2021/04/17 10:05:02;;;;;;;;;;;13.00;50.50;;;;;;5046507;28;20025;-67
2021/04/17 10:07:44;;;;;;;15.73;10.95;;;13.30;48.80;;;;;;5046026;28;19998;-65
2021/04/17 10:10:10;;;;;;;15.82;10.77;;;13.00;49.90;;;;;;5044418;28;20033;-65
2021/04/17 10:12:52;;;;;;;14.52;10.32;;;12.80;50.40;;;;;;5045782;28;20033;-67
2021/04/17 10:15:27;;;;;;;13.52;9.70;;;12.60;50.20;;;;;;5044328;28;20060;-66
2021/04/17 10:17:55;;;;;;;13.98;8.52;;;12.50;51.20;;;;;;5045366;28;20032;-66
2021/04/17 10:20:21;;;;;;;13.77;10.30;;;12.20;50.80;;;;;;5045417;28;20033;-67
2021/04/17 10:22:55;;;;;;;13.38;10.02;;;12.60;49.40;;;;;;5047950;28;20094;-67
2021/04/17 10:25:37;;;;;;;16.02;11.27;;;12.80;50.50;;;;;;5049548;28;20021;-66
2021/04/17 10:28:21;;;;;;;14.02;10.38;;;13.00;50.10;;;;;;5049120;28;20048;-67
2021/04/17 10:30:51;;;;;;;19.90;12.73;;;13.20;48.90;;;;;;5049457;28;20029;-67
2021/04/17 10:33:24;;;;;;;16.60;11.90;;;13.50;48.40;;;;;;5049174;28;20029;-65
2021/04/17 10:35:51;;;;;;;25.08;13.93;;;13.50;48.00;;;;;;5048192;28;20029;-66
2021/04/17 10:38:23;;;;;;;13.35;9.90;;;13.40;49.10;;;;;;5049241;28;20095;-66
2021/04/17 10:40:49;;;;;;;11.50;9.45;;;13.00;48.90;;;;;;5049238;28;20035;-67
2021/04/17 10:43:18;;;;;;;;;;;13.10;50.80;;;;;;5049789;28;20779;-66
2021/04/17 10:45:45;;;;;;;12.10;10.07;;;13.00;49.90;;;;;;5048732;28;20391;-65
2021/04/17 10:48:18;;;;;;;19.98;13.05;;;13.10;49.00;;;;;;5047307;28;20025;-67
2021/04/17 10:51:07;;;;;;;12.30;10.00;;;13.00;50.10;;;;;;5048721;28;20035;-66
2021/04/17 10:53:35;;;;;;;18.65;10.98;;;13.00;49.70;;;;;;5049190;28;20094;-66
2021/04/17 10:56:17;;;;;;;11.50;9.07;;;12.90;50.60;;;;;;5048598;28;20039;-67
2021/04/17 10:58:45;;;;;;;16.60;10.55;;;12.60;50.60;;;;;;5048963;28;20061;-67
2021/04/17 11:01:25;;;;;;;21.70;10.48;;;12.80;50.20;;;;;;5048222;28;20032;-67
2021/04/17 11:04:00;;;;;;;13.00;8.98;;;12.70;50.50;;;;;;5048550;28;20064;-66
2021/04/17 11:06:37;;;;;;;15.35;9.52;;;13.00;50.30;;;;;;5048815;28;20036;-66
2021/04/17 11:09:11;;;;;;;10.75;8.70;;;13.50;49.10;;;;;;5048830;28;20059;-66
2021/04/17 11:11:37;;;;;;;11.38;8.40;;;13.40;48.80;;;;;;5048833;28;20051;-67
2021/04/17 11:14:05;;;;;;;10.80;8.70;;;13.20;49.00;;;;;;5048433;28;20548;-67
2021/04/17 11:16:38;;;;;;;16.83;9.13;;;13.20;49.30;;;;;;5048156;28;20029;-67
2021/04/17 11:19:23;;;;;;;14.57;10.45;;;13.20;48.30;;;;;;5048458;28;20115;-67
2021/04/17 11:22:07;;;;;;;11.77;9.15;;;13.20;49.50;;;;;;5046932;28;20082;-66
2021/04/17 11:24:33;;;;;;;10.43;8.40;;;13.00;48.00;;;;;;5048618;28;20094;-67
2021/04/17 11:26:58;;;;;;;;;;;13.10;49.10;;;;;;5048960;28;20485;-66
2021/04/17 11:29:24;;;;;;;11.85;9.38;;;12.90;48.10;;;;;;5048128;28;19967;-66
2021/04/17 11:31:50;;;;;;;;;;;12.80;48.90;;;;;;5047867;28;20108;-67
2021/04/17 11:34:17;;;;;;;11.93;9.52;;;12.70;49.70;;;;;;5048216;28;20385;-67
2021/04/17 11:36:43;;;;;;;10.88;9.15;;;13.00;49.00;;;;;;5048295;28;20032;-67
2021/04/17 11:39:09;;;;;;;13.50;9.40;;;12.70;49.60;;;;;;5046976;28;20061;-66
2021/04/17 11:41:35;;;;;;;11.88;8.52;;;12.60;49.70;;;;;;5047933;28;20112;-67
2021/04/17 11:44:01;;;;;;;;;;;12.80;50.60;;;;;;5048475;28;20588;-67
2021/04/17 11:46:26;;;;;;;11.02;8.55;;;12.80;50.40;;;;;;5047553;28;19920;-67
2021/04/17 11:48:52;;;;;;;;;;;13.10;50.00;;;;;;5048620;28;20029;-66
2021/04/17 11:51:19;;;;;;;14.05;9.88;;;13.00;49.20;;;;;;5047925;28;19923;-67
2021/04/17 11:53:46;;;;;;;16.27;9.30;;;12.90;49.70;;;;;;5047628;28;20021;-66
2021/04/17 11:56:12;;;;;;;15.27;8.60;;;13.10;48.90;;;;;;5048037;28;20045;-66
2021/04/17 11:58:38;;;;;;;16.45;10.27;;;13.00;47.80;;;;;;5047809;28;20025;-66
2021/04/17 12:01:04;;;;;;;;;;;12.90;49.20;;;;;;5047536;28;20083;-67
2021/04/17 12:03:29;;;;;;;15.80;10.15;;;12.90;49.10;;;;;;5047887;28;19908;-66
2021/04/17 12:05:55;;;;;;;;;;;12.80;49.40;;;;;;5047700;28;20025;-67
2021/04/17 12:08:23;;;;;;;13.52;9.02;;;12.80;49.30;;;;;;5047340;28;20003;-65
2021/04/17 12:10:50;;;;;;;12.85;9.40;;;12.80;49.10;;;;;;5047617;28;20064;-66
2021/04/17 12:13:16;;;;;;;14.20;9.18;;;13.00;49.20;;;;;;5047683;28;20497;-67
2021/04/17 12:15:42;;;;;;;;;;;12.80;48.40;;;;;;5047677;28;20063;-67
2021/04/17 12:18:08;;;;;;;15.88;9.88;;;13.10;48.40;;;;;;5047307;28;19916;-67
2021/04/17 12:20:35;;;;;;;21.42;12.30;;;13.00;48.40;;;;;;5047354;28;20053;-67
2021/04/17 12:23:00;;;;;;;15.30;12.30;;;13.00;49.20;;;;;;5047493;28;20029;-67
2021/04/17 12:25:26;;;;;;;;;;;12.80;48.10;;;;;;5047486;28;20386;-66
2021/04/17 12:27:51;;;;;;;12.45;8.98;;;12.70;51.60;;;;;;5046126;28;19931;-66
2021/04/17 12:30:18;;;;;;;;;;;12.80;50.70;;;;;;5047362;28;20040;-66
2021/04/17 12:32:43;;;;;;;20.90;15.32;;;13.00;49.90;;;;;;5045614;28;19995;-67
2021/04/17 12:35:11;;;;;;;;;;;13.00;49.50;;;;;;5047592;28;20307;-66
2021/04/17 12:37:37;;;;;;;18.70;11.52;;;12.80;49.70;;;;;;5047281;28;19911;-67
2021/04/17 12:40:03;;;;;;;;;;;12.80;49.40;;;;;;5047199;28;20413;-67
2021/04/17 12:42:29;;;;;;;26.77;16.73;;;12.90;50.30;;;;;;5047278;28;20410;-66
2021/04/17 12:44:54;;;;;;;;;;;12.80;49.40;;;;;;5046149;28;20053;-66
2021/04/17 12:47:20;;;;;;;21.45;16.20;;;12.90;49.20;;;;;;5046910;28;20304;-66
2021/04/17 12:49:46;;;;;;;;;;;12.80;49.50;;;;;;5047052;28;20037;-67
2021/04/17 12:52:11;;;;;;;11.95;9.15;;;12.80;48.90;;;;;;5046765;28;19909;-67
2021/04/17 12:54:37;;;;;;;;;;;13.10;49.10;;;;;;5046969;28;20041;-67
2021/04/17 12:57:03;;;;;;;20.75;14.07;;;13.30;49.40;;;;;;5046498;28;19905;-66
2021/04/17 12:59:28;;;;;;;;;;;13.50;48.00;;;;;;5046716;28;20029;-66
2021/04/17 13:01:54;;;;;;;13.80;10.00;;;13.50;47.70;;;;;;5046431;28;19963;-67
2021/04/17 13:04:19;;;;;;;;;;;13.50;48.30;;;;;;5046886;28;20025;-66
2021/04/17 13:06:45;;;;;;;13.90;9.00;;;13.60;47.30;;;;;;5046380;28;19908;-67